Terminal Aerodrome Forecast
Issued by NWS

Home | Current Version | Previous Version | Graphics & Text | Print | Product List | Glossary On
Versions: 1 2 3 4 5 6 7 8 9 10 11 12 13 14 15 16 17 18 19 20 21 22 23 24
442
FTUS42 KMHX 222330 AAC
TAFOAJ
TAF AMD
KOAJ 222330Z 2300/2324 35005KT P6SM VCSH BKN060
     FM230500 VRB03KT P6SM VCSH BKN040
     FM231000 VRB03KT P6SM VCSH BKN020
     FM231500 33005KT P6SM VCSH BKN025
     FM231800 33010KT P6SM VCSH BKN040
      AMD LTD TO CLD VIS AND WIND=

USA.gov is the U.S. government's official web portal to all federal, state and local government web resources and services.